sensor_id;sensor_type;location;lat;lon;timestamp;pressure;altitude;pressure_sealevel;temperature;humidity
7480;BME280;3781;42.272;22.658;2023-02-21T00:01:05;95117.22;;;0.77;100.00
7480;BME280;3781;42.272;22.658;2023-02-21T00:03:49;95113.41;;;0.65;100.00
7480;BME280;3781;42.272;22.658;2023-02-21T00:06:33;95105.69;;;0.47;100.00
7480;BME280;3781;42.272;22.658;2023-02-21T00:09:17;95111.66;;;0.26;100.00
7480;BME280;3781;42.272;22.658;2023-02-21T00:12:01;95102.47;;;0.42;100.00
7480;BME280;3781;42.272;22.658;2023-02-21T00:14:45;95102.03;;;0.52;100.00
7480;BME280;3781;42.272;22.658;2023-02-21T00:17:30;95107.50;;;0.65;100.00
7480;BME280;3781;42.272;22.658;2023-02-21T00:20:15;95108.75;;;0.55;100.00
7480;BME280;3781;42.272;22.658;2023-02-21T00:22:59;95089.19;;;0.74;100.00
7480;BME280;3781;42.272;22.658;2023-02-21T00:25:43;95110.56;;;0.73;100.00
7480;BME280;3781;42.272;22.658;2023-02-21T00:28:27;95103.66;;;0.55;100.00
7480;BME280;3781;42.272;22.658;2023-02-21T00:31:10;95101.75;;;0.60;100.00
7480;BME280;3781;42.272;22.658;2023-02-21T00:33:56;95086.63;;;0.34;100.00
7480;BME280;3781;42.272;22.658;2023-02-21T00:36:40;95108.31;;;0.45;100.00
7480;BME280;3781;42.272;22.658;2023-02-21T00:39:24;95067.38;;;0.05;100.00
7480;BME280;3781;42.272;22.658;2023-02-21T00:42:08;95081.34;;;0.38;100.00
7480;BME280;3781;42.272;22.658;2023-02-21T00:44:52;95111.84;;;0.63;100.00
7480;BME280;3781;42.272;22.658;2023-02-21T00:47:36;95109.03;;;0.89;100.00
7480;BME280;3781;42.272;22.658;2023-02-21T00:50:21;95093.56;;;0.52;100.00
7480;BME280;3781;42.272;22.658;2023-02-21T00:53:06;95091.88;;;0.51;100.00
7480;BME280;3781;42.272;22.658;2023-02-21T00:55:49;95106.78;;;0.20;100.00
7480;BME280;3781;42.272;22.658;2023-02-21T00:58:33;95087.41;;;0.36;100.00
7480;BME280;3781;42.272;22.658;2023-02-21T01:01:17;95106.78;;;0.61;100.00
7480;BME280;3781;42.272;22.658;2023-02-21T01:04:01;95080.38;;;1.01;100.00
7480;BME280;3781;42.272;22.658;2023-02-21T01:06:49;95074.78;;;1.12;100.00
7480;BME280;3781;42.272;22.658;2023-02-21T01:09:33;95061.88;;;0.76;100.00
7480;BME280;3781;42.272;22.658;2023-02-21T01:12:17;95062.91;;;0.52;100.00
7480;BME280;3781;42.272;22.658;2023-02-21T01:15:01;95061.47;;;0.25;100.00
7480;BME280;3781;42.272;22.658;2023-02-21T01:17:46;95045.13;;;0.49;100.00
7480;BME280;3781;42.272;22.658;2023-02-21T01:20:29;95059.56;;;0.70;100.00
7480;BME280;3781;42.272;22.658;2023-02-21T01:23:15;95053.56;;;0.91;100.00
7480;BME280;3781;42.272;22.658;2023-02-21T01:25:59;95027.50;;;0.63;100.00
7480;BME280;3781;42.272;22.658;2023-02-21T01:28:43;95062.00;;;0.73;100.00
7480;BME280;3781;42.272;22.658;2023-02-21T01:31:27;95060.97;;;0.57;100.00
7480;BME280;3781;42.272;22.658;2023-02-21T01:34:11;95064.03;;;0.45;100.00
7480;BME280;3781;42.272;22.658;2023-02-21T01:36:55;95053.81;;;0.25;100.00
7480;BME280;3781;42.272;22.658;2023-02-21T01:39:40;95056.09;;;0.11;100.00
7480;BME280;3781;42.272;22.658;2023-02-21T01:42:24;95052.88;;;0.06;100.00
7480;BME280;3781;42.272;22.658;2023-02-21T01:45:39;95044.94;;;-0.09;100.00
7480;BME280;3781;42.272;22.658;2023-02-21T01:48:25;95030.97;;;-0.42;100.00
7480;BME280;3781;42.272;22.658;2023-02-21T01:51:13;95041.09;;;-0.19;100.00
7480;BME280;3781;42.272;22.658;2023-02-21T01:53:58;95041.50;;;-0.29;100.00
7480;BME280;3781;42.272;22.658;2023-02-21T01:56:44;95035.44;;;-0.05;100.00
7480;BME280;3781;42.272;22.658;2023-02-21T01:59:29;95001.88;;;-0.38;100.00
7480;BME280;3781;42.272;22.658;2023-02-21T02:02:17;95005.09;;;-0.13;100.00
7480;BME280;3781;42.272;22.658;2023-02-21T02:05:03;95014.81;;;-0.21;100.00
7480;BME280;3781;42.272;22.658;2023-02-21T02:07:48;95013.44;;;-0.51;100.00
7480;BME280;3781;42.272;22.658;2023-02-21T02:10:32;94985.22;;;-0.68;100.00
7480;BME280;3781;42.272;22.658;2023-02-21T02:13:34;95008.63;;;-0.58;100.00
7480;BME280;3781;42.272;22.658;2023-02-21T02:16:08;94999.50;;;-0.64;100.00
7480;BME280;3781;42.272;22.658;2023-02-21T02:18:51;94996.44;;;-0.72;100.00
7480;BME280;3781;42.272;22.658;2023-02-21T02:21:41;95007.22;;;-0.65;100.00
7480;BME280;3781;42.272;22.658;2023-02-21T02:27:30;95015.41;;;-0.57;100.00
7480;BME280;3781;42.272;22.658;2023-02-21T02:30:21;95005.72;;;-0.71;100.00
7480;BME280;3781;42.272;22.658;2023-02-21T02:33:11;95005.19;;;-0.57;100.00
7480;BME280;3781;42.272;22.658;2023-02-21T02:35:49;95001.16;;;-0.63;100.00
7480;BME280;3781;42.272;22.658;2023-02-21T02:38:24;95007.94;;;-0.62;100.00
7480;BME280;3781;42.272;22.658;2023-02-21T02:40:58;95003.75;;;-0.86;100.00
7480;BME280;3781;42.272;22.658;2023-02-21T02:43:29;94974.94;;;-0.88;100.00
7480;BME280;3781;42.272;22.658;2023-02-21T02:46:03;95013.16;;;-0.88;100.00
7480;BME280;3781;42.272;22.658;2023-02-21T02:48:34;95002.44;;;-0.96;100.00
7480;BME280;3781;42.272;22.658;2023-02-21T02:51:07;95011.81;;;-0.75;100.00
7480;BME280;3781;42.272;22.658;2023-02-21T02:53:35;94984.44;;;-0.70;100.00
7480;BME280;3781;42.272;22.658;2023-02-21T02:56:03;94988.22;;;-0.37;100.00
7480;BME280;3781;42.272;22.658;2023-02-21T02:58:32;94989.06;;;-0.36;100.00
7480;BME280;3781;42.272;22.658;2023-02-21T03:01:11;95012.75;;;-0.13;100.00
7480;BME280;3781;42.272;22.658;2023-02-21T03:03:51;95008.75;;;-0.40;100.00
7480;BME280;3781;42.272;22.658;2023-02-21T03:06:30;95006.16;;;-0.60;100.00
7480;BME280;3781;42.272;22.658;2023-02-21T03:09:07;95015.25;;;-0.54;100.00
7480;BME280;3781;42.272;22.658;2023-02-21T03:11:41;95025.44;;;-0.53;100.00
7480;BME280;3781;42.272;22.658;2023-02-21T03:14:13;95022.63;;;-0.25;100.00
7480;BME280;3781;42.272;22.658;2023-02-21T03:16:43;95027.38;;;-0.16;100.00
7480;BME280;3781;42.272;22.658;2023-02-21T03:19:16;95014.44;;;-0.12;100.00
7480;BME280;3781;42.272;22.658;2023-02-21T03:21:49;95010.25;;;0.08;100.00
7480;BME280;3781;42.272;22.658;2023-02-21T03:24:18;95013.00;;;0.03;100.00
7480;BME280;3781;42.272;22.658;2023-02-21T03:26:48;94971.94;;;-0.13;100.00
7480;BME280;3781;42.272;22.658;2023-02-21T03:29:18;95005.47;;;0.20;100.00
7480;BME280;3781;42.272;22.658;2023-02-21T03:31:47;95012.94;;;0.25;100.00
7480;BME280;3781;42.272;22.658;2023-02-21T03:34:17;95010.84;;;0.14;100.00
7480;BME280;3781;42.272;22.658;2023-02-21T03:36:44;95023.16;;;0.25;100.00
7480;BME280;3781;42.272;22.658;2023-02-21T03:39:13;95013.50;;;0.31;100.00
7480;BME280;3781;42.272;22.658;2023-02-21T03:41:39;94996.78;;;0.24;100.00
7480;BME280;3781;42.272;22.658;2023-02-21T03:44:06;95010.50;;;0.42;100.00
7480;BME280;3781;42.272;22.658;2023-02-21T03:46:33;95016.84;;;0.33;100.00
7480;BME280;3781;42.272;22.658;2023-02-21T03:49:00;95017.09;;;0.27;100.00
7480;BME280;3781;42.272;22.658;2023-02-21T03:51:27;95028.78;;;0.13;100.00
7480;BME280;3781;42.272;22.658;2023-02-21T03:53:53;95018.63;;;-0.11;100.00
7480;BME280;3781;42.272;22.658;2023-02-21T03:56:21;95031.03;;;-0.02;100.00
7480;BME280;3781;42.272;22.658;2023-02-21T03:58:48;95028.91;;;-0.12;100.00
7480;BME280;3781;42.272;22.658;2023-02-21T04:01:15;95035.31;;;-0.02;100.00
7480;BME280;3781;42.272;22.658;2023-02-21T04:03:41;95037.47;;;0.09;100.00
7480;BME280;3781;42.272;22.658;2023-02-21T04:06:08;95030.16;;;-0.01;100.00
7480;BME280;3781;42.272;22.658;2023-02-21T04:08:35;95028.34;;;-0.19;100.00
7480;BME280;3781;42.272;22.658;2023-02-21T04:11:01;95029.59;;;-0.29;100.00
7480;BME280;3781;42.272;22.658;2023-02-21T04:13:30;95021.81;;;-0.26;100.00
7480;BME280;3781;42.272;22.658;2023-02-21T04:15:56;95010.66;;;-0.23;100.00
7480;BME280;3781;42.272;22.658;2023-02-21T04:18:23;95009.78;;;-0.22;100.00
7480;BME280;3781;42.272;22.658;2023-02-21T04:20:50;95006.03;;;-0.35;100.00
7480;BME280;3781;42.272;22.658;2023-02-21T04:23:17;95003.06;;;-0.46;100.00
7480;BME280;3781;42.272;22.658;2023-02-21T04:25:44;94995.09;;;-0.39;100.00
7480;BME280;3781;42.272;22.658;2023-02-21T04:28:11;95001.88;;;-0.38;100.00
7480;BME280;3781;42.272;22.658;2023-02-21T04:30:39;95005.19;;;-0.36;100.00
7480;BME280;3781;42.272;22.658;2023-02-21T04:33:06;95005.44;;;-0.42;100.00
7480;BME280;3781;42.272;22.658;2023-02-21T04:35:33;95001.16;;;-0.41;100.00
7480;BME280;3781;42.272;22.658;2023-02-21T04:37:59;95001.75;;;-0.35;100.00
7480;BME280;3781;42.272;22.658;2023-02-21T04:40:26;95003.66;;;-0.40;100.00
7480;BME280;3781;42.272;22.658;2023-02-21T04:42:53;95017.00;;;-0.55;100.00
7480;BME280;3781;42.272;22.658;2023-02-21T04:45:20;95022.59;;;-0.90;100.00
7480;BME280;3781;42.272;22.658;2023-02-21T04:47:48;95013.31;;;-1.39;100.00
7480;BME280;3781;42.272;22.658;2023-02-21T04:50:14;95033.28;;;-1.52;100.00
7480;BME280;3781;42.272;22.658;2023-02-21T04:52:41;95024.88;;;-1.54;100.00
7480;BME280;3781;42.272;22.658;2023-02-21T04:55:08;95012.44;;;-1.61;100.00
7480;BME280;3781;42.272;22.658;2023-02-21T04:57:35;95002.41;;;-1.66;100.00
7480;BME280;3781;42.272;22.658;2023-02-21T05:00:03;95013.22;;;-1.61;100.00
7480;BME280;3781;42.272;22.658;2023-02-21T05:02:31;95017.91;;;-1.48;100.00
7480;BME280;3781;42.272;22.658;2023-02-21T05:04:59;95018.63;;;-1.45;100.00
7480;BME280;3781;42.272;22.658;2023-02-21T05:07:26;95002.56;;;-1.47;100.00
7480;BME280;3781;42.272;22.658;2023-02-21T05:09:53;95016.44;;;-1.31;100.00
7480;BME280;3781;42.272;22.658;2023-02-21T05:12:19;95010.84;;;-0.94;100.00
7480;BME280;3781;42.272;22.658;2023-02-21T05:14:46;95015.72;;;-0.88;100.00
7480;BME280;3781;42.272;22.658;2023-02-21T05:17:13;95007.84;;;-0.82;100.00
7480;BME280;3781;42.272;22.658;2023-02-21T05:19:39;95007.22;;;-0.89;100.00
7480;BME280;3781;42.272;22.658;2023-02-21T05:22:07;95007.84;;;-0.82;100.00
7480;BME280;3781;42.272;22.658;2023-02-21T05:24:40;95007.50;;;-0.73;100.00
7480;BME280;3781;42.272;22.658;2023-02-21T05:27:08;95003.91;;;-0.46;100.00
7480;BME280;3781;42.272;22.658;2023-02-21T05:29:35;95001.56;;;-0.30;100.00
7480;BME280;3781;42.272;22.658;2023-02-21T05:32:02;95009.94;;;-0.27;100.00
7480;BME280;3781;42.272;22.658;2023-02-21T05:34:29;95005.00;;;-0.10;100.00
7480;BME280;3781;42.272;22.658;2023-02-21T05:36:56;95012.16;;;0.03;100.00
7480;BME280;3781;42.272;22.658;2023-02-21T05:39:24;95012.16;;;0.03;100.00
7480;BME280;3781;42.272;22.658;2023-02-21T05:41:51;95011.22;;;-0.17;100.00
7480;BME280;3781;42.272;22.658;2023-02-21T05:44:18;95007.56;;;-0.31;100.00
7480;BME280;3781;42.272;22.658;2023-02-21T05:46:44;95021.34;;;-0.35;100.00
7480;BME280;3781;42.272;22.658;2023-02-21T05:49:11;95029.63;;;-0.30;100.00
7480;BME280;3781;42.272;22.658;2023-02-21T05:51:41;95027.16;;;-0.32;100.00
7480;BME280;3781;42.272;22.658;2023-02-21T05:54:10;95026.00;;;-0.03;100.00
7480;BME280;3781;42.272;22.658;2023-02-21T05:56:42;95027.88;;;-0.07;100.00
7480;BME280;3781;42.272;22.658;2023-02-21T05:59:09;95025.13;;;-0.24;100.00
7480;BME280;3781;42.272;22.658;2023-02-21T06:01:37;95026.47;;;-0.15;100.00
7480;BME280;3781;42.272;22.658;2023-02-21T06:04:04;95025.19;;;0.57;100.00
7480;BME280;3781;42.272;22.658;2023-02-21T06:06:32;95021.00;;;1.50;100.00
7480;BME280;3781;42.272;22.658;2023-02-21T06:08:59;95023.09;;;2.48;100.00
7480;BME280;3781;42.272;22.658;2023-02-21T06:11:27;95030.47;;;3.52;100.00
7480;BME280;3781;42.272;22.658;2023-02-21T06:13:58;95028.38;;;4.21;94.84
7480;BME280;3781;42.272;22.658;2023-02-21T06:16:25;95027.06;;;4.88;88.47
7480;BME280;3781;42.272;22.658;2023-02-21T06:18:54;95034.63;;;5.05;82.74
7480;BME280;3781;42.272;22.658;2023-02-21T06:21:22;95035.19;;;5.38;79.83
7480;BME280;3781;42.272;22.658;2023-02-21T06:23:49;95042.50;;;4.88;78.73
7480;BME280;3781;42.272;22.658;2023-02-21T06:26:19;95038.66;;;4.51;77.79
7480;BME280;3781;42.272;22.658;2023-02-21T06:28:46;95039.59;;;5.08;75.10
7480;BME280;3781;42.272;22.658;2023-02-21T06:31:15;95049.94;;;5.77;70.78
7480;BME280;3781;42.272;22.658;2023-02-21T06:33:42;95042.16;;;5.78;69.67
7480;BME280;3781;42.272;22.658;2023-02-21T06:36:12;94989.66;;;5.93;67.21
7480;BME280;3781;42.272;22.658;2023-02-21T06:38:39;95045.38;;;6.62;64.95
7480;BME280;3781;42.272;22.658;2023-02-21T06:41:06;95050.00;;;7.09;62.33
7480;BME280;3781;42.272;22.658;2023-02-21T06:43:34;95043.03;;;6.32;63.21
7480;BME280;3781;42.272;22.658;2023-02-21T06:46:01;95045.63;;;6.97;62.27
7480;BME280;3781;42.272;22.658;2023-02-21T06:48:30;95044.78;;;6.32;62.40
7480;BME280;3781;42.272;22.658;2023-02-21T06:50:58;95036.56;;;6.91;61.93
7480;BME280;3781;42.272;22.658;2023-02-21T06:53:25;95031.78;;;7.35;60.61
7480;BME280;3781;42.272;22.658;2023-02-21T06:55:51;95049.59;;;7.02;60.71
7480;BME280;3781;42.272;22.658;2023-02-21T06:58:18;95039.41;;;7.62;60.02
7480;BME280;3781;42.272;22.658;2023-02-21T07:00:45;95031.59;;;8.23;57.72
7480;BME280;3781;42.272;22.658;2023-02-21T07:03:12;95049.53;;;8.50;56.44
7480;BME280;3781;42.272;22.658;2023-02-21T07:05:40;95053.50;;;8.43;55.98
7480;BME280;3781;42.272;22.658;2023-02-21T07:08:06;95050.31;;;8.51;55.79
7480;BME280;3781;42.272;22.658;2023-02-21T07:10:33;95030.91;;;9.37;53.26
7480;BME280;3781;42.272;22.658;2023-02-21T07:13:00;95039.75;;;9.89;51.81
7480;BME280;3781;42.272;22.658;2023-02-21T07:15:27;95034.03;;;10.72;49.76
7480;BME280;3781;42.272;22.658;2023-02-21T07:17:53;95056.72;;;10.70;49.48
7480;BME280;3781;42.272;22.658;2023-02-21T07:20:20;95041.91;;;11.02;49.12
7480;BME280;3781;42.272;22.658;2023-02-21T07:22:48;95041.28;;;11.30;48.58
7480;BME280;3781;42.272;22.658;2023-02-21T07:25:17;95049.53;;;11.35;48.36
7480;BME280;3781;42.272;22.658;2023-02-21T07:27:45;95044.97;;;11.48;47.69
7480;BME280;3781;42.272;22.658;2023-02-21T07:30:13;95046.44;;;11.51;48.08
7480;BME280;3781;42.272;22.658;2023-02-21T07:32:39;95010.63;;;11.84;46.64
7480;BME280;3781;42.272;22.658;2023-02-21T07:35:07;95044.38;;;11.45;47.42
7480;BME280;3781;42.272;22.658;2023-02-21T07:37:34;95045.78;;;11.69;47.34
7480;BME280;3781;42.272;22.658;2023-02-21T07:40:02;95027.78;;;12.46;45.91
7480;BME280;3781;42.272;22.658;2023-02-21T07:42:32;95026.28;;;12.62;45.87
7480;BME280;3781;42.272;22.658;2023-02-21T07:44:58;95022.06;;;13.09;45.08
7480;BME280;3781;42.272;22.658;2023-02-21T07:47:26;95033.56;;;12.59;45.36
7480;BME280;3781;42.272;22.658;2023-02-21T07:49:53;95014.06;;;13.20;43.87
7480;BME280;3781;42.272;22.658;2023-02-21T07:52:20;95026.72;;;13.15;44.11
7480;BME280;3781;42.272;22.658;2023-02-21T07:54:47;95012.72;;;12.59;44.28
7480;BME280;3781;42.272;22.658;2023-02-21T07:57:15;95018.75;;;12.88;44.76
7480;BME280;3781;42.272;22.658;2023-02-21T07:59:42;95025.22;;;13.69;43.64
7480;BME280;3781;42.272;22.658;2023-02-21T08:02:10;95010.97;;;13.90;42.96
7480;BME280;3781;42.272;22.658;2023-02-21T08:04:37;95006.59;;;14.63;42.42
7480;BME280;3781;42.272;22.658;2023-02-21T08:07:04;95008.16;;;14.73;40.96
7480;BME280;3781;42.272;22.658;2023-02-21T08:09:31;94993.03;;;14.32;42.10
7480;BME280;3781;42.272;22.658;2023-02-21T08:11:58;95002.66;;;14.76;41.22
7480;BME280;3781;42.272;22.658;2023-02-21T08:14:27;94973.81;;;14.23;41.25
7480;BME280;3781;42.272;22.658;2023-02-21T08:16:55;94993.75;;;15.48;40.22
7480;BME280;3781;42.272;22.658;2023-02-21T08:19:21;95006.34;;;15.78;38.98
7480;BME280;3781;42.272;22.658;2023-02-21T08:21:48;94992.38;;;15.61;38.87
7480;BME280;3781;42.272;22.658;2023-02-21T08:24:16;94990.47;;;16.13;37.96
7480;BME280;3781;42.272;22.658;2023-02-21T08:26:43;94990.53;;;14.75;39.52
7480;BME280;3781;42.272;22.658;2023-02-21T08:29:11;94979.75;;;15.14;39.55
7480;BME280;3781;42.272;22.658;2023-02-21T08:31:40;94979.47;;;15.25;38.88
7480;BME280;3781;42.272;22.658;2023-02-21T08:34:08;94979.19;;;16.79;36.27
7480;BME280;3781;42.272;22.658;2023-02-21T08:36:37;94976.75;;;16.27;36.77
7480;BME280;3781;42.272;22.658;2023-02-21T08:39:05;94979.47;;;17.64;34.95
7480;BME280;3781;42.272;22.658;2023-02-21T08:41:36;94974.28;;;18.42;33.48
7480;BME280;3781;42.272;22.658;2023-02-21T08:44:03;94982.16;;;17.24;34.98
7480;BME280;3781;42.272;22.658;2023-02-21T08:46:30;94972.78;;;18.08;33.79
7480;BME280;3781;42.272;22.658;2023-02-21T08:48:58;94976.53;;;18.53;32.83
7480;BME280;3781;42.272;22.658;2023-02-21T08:51:25;94971.66;;;18.42;33.14
7480;BME280;3781;42.272;22.658;2023-02-21T08:53:52;94966.72;;;17.21;34.13
7480;BME280;3781;42.272;22.658;2023-02-21T08:56:19;94955.72;;;18.89;32.45
7480;BME280;3781;42.272;22.658;2023-02-21T08:58:46;94951.38;;;19.41;31.74
7480;BME280;3781;42.272;22.658;2023-02-21T09:01:13;94955.84;;;19.99;30.15
7480;BME280;3781;42.272;22.658;2023-02-21T09:03:39;94956.38;;;21.10;29.09
7480;BME280;3781;42.272;22.658;2023-02-21T09:06:08;94946.31;;;19.98;30.37
7480;BME280;3781;42.272;22.658;2023-02-21T09:08:35;94936.47;;;20.36;29.25
7480;BME280;3781;42.272;22.658;2023-02-21T09:11:03;94941.59;;;21.43;28.75
7480;BME280;3781;42.272;22.658;2023-02-21T09:13:30;94949.28;;;21.38;28.25
7480;BME280;3781;42.272;22.658;2023-02-21T09:15:57;94941.56;;;21.64;28.17
7480;BME280;3781;42.272;22.658;2023-02-21T09:18:25;94926.72;;;20.72;29.10
7480;BME280;3781;42.272;22.658;2023-02-21T09:20:52;94925.00;;;20.64;29.35
7480;BME280;3781;42.272;22.658;2023-02-21T09:23:25;94926.75;;;21.42;28.81
7480;BME280;3781;42.272;22.658;2023-02-21T09:25:52;94925.97;;;21.20;28.83
7480;BME280;3781;42.272;22.658;2023-02-21T09:28:19;94905.47;;;20.23;29.97
7480;BME280;3781;42.272;22.658;2023-02-21T09:30:46;94918.50;;;21.58;28.97
7480;BME280;3781;42.272;22.658;2023-02-21T09:33:14;94907.69;;;21.81;28.22
7480;BME280;3781;42.272;22.658;2023-02-21T09:35:41;94910.28;;;22.08;27.69
7480;BME280;3781;42.272;22.658;2023-02-21T09:38:08;94902.81;;;22.79;27.32
7480;BME280;3781;42.272;22.658;2023-02-21T09:40:41;94884.91;;;23.07;26.64
7480;BME280;3781;42.272;22.658;2023-02-21T09:43:12;94907.19;;;21.09;29.13
7480;BME280;3781;42.272;22.658;2023-02-21T09:45:41;94904.44;;;20.39;30.27
7480;BME280;3781;42.272;22.658;2023-02-21T09:48:11;94907.22;;;21.77;28.72
7480;BME280;3781;42.272;22.658;2023-02-21T09:50:40;94894.00;;;21.43;28.73
7480;BME280;3781;42.272;22.658;2023-02-21T09:53:10;94890.91;;;21.67;28.87
7480;BME280;3781;42.272;22.658;2023-02-21T09:55:41;94903.25;;;21.26;28.74
7480;BME280;3781;42.272;22.658;2023-02-21T09:58:11;94874.47;;;20.88;29.27
7480;BME280;3781;42.272;22.658;2023-02-21T10:00:39;94868.00;;;20.91;29.26
7480;BME280;3781;42.272;22.658;2023-02-21T10:06:11;94876.59;;;19.86;30.49
7480;BME280;3781;42.272;22.658;2023-02-21T10:08:48;94859.50;;;20.53;30.52
7480;BME280;3781;42.272;22.658;2023-02-21T10:11:30;94856.13;;;20.38;30.19
7480;BME280;3781;42.272;22.658;2023-02-21T10:14:08;94857.75;;;20.60;29.89
7480;BME280;3781;42.272;22.658;2023-02-21T10:16:43;94851.69;;;21.64;29.21
7480;BME280;3781;42.272;22.658;2023-02-21T10:19:15;94837.03;;;22.09;28.43
7480;BME280;3781;42.272;22.658;2023-02-21T10:21:46;94836.88;;;22.23;28.35
7480;BME280;3781;42.272;22.658;2023-02-21T10:24:15;94833.53;;;22.69;27.79
7480;BME280;3781;42.272;22.658;2023-02-21T10:26:47;94831.09;;;23.06;27.40
7480;BME280;3781;42.272;22.658;2023-02-21T10:29:22;94823.31;;;22.52;27.93
7480;BME280;3781;42.272;22.658;2023-02-21T10:31:53;94806.97;;;22.42;27.65
7480;BME280;3781;42.272;22.658;2023-02-21T10:34:24;94825.25;;;23.88;26.24
7480;BME280;3781;42.272;22.658;2023-02-21T10:36:53;94796.63;;;23.96;25.71
7480;BME280;3781;42.272;22.658;2023-02-21T10:39:24;94816.41;;;25.25;24.61
7480;BME280;3781;42.272;22.658;2023-02-21T10:41:56;94814.09;;;25.35;24.74
7480;BME280;3781;42.272;22.658;2023-02-21T10:44:27;94800.88;;;25.04;25.00
7480;BME280;3781;42.272;22.658;2023-02-21T10:47:00;94794.91;;;25.70;24.68
7480;BME280;3781;42.272;22.658;2023-02-21T10:49:31;94800.72;;;24.68;25.25
7480;BME280;3781;42.272;22.658;2023-02-21T10:52:04;94785.16;;;24.09;25.80
7480;BME280;3781;42.272;22.658;2023-02-21T10:54:31;94786.63;;;22.56;27.61
7480;BME280;3781;42.272;22.658;2023-02-21T10:57:00;94778.06;;;22.34;28.22
7480;BME280;3781;42.272;22.658;2023-02-21T10:59:31;94780.75;;;23.00;27.73
7480;BME280;3781;42.272;22.658;2023-02-21T11:01:58;94781.84;;;24.20;26.47
7480;BME280;3781;42.272;22.658;2023-02-21T11:04:30;94776.81;;;24.68;25.86
7480;BME280;3781;42.272;22.658;2023-02-21T11:07:01;94765.94;;;25.43;25.19
7480;BME280;3781;42.272;22.658;2023-02-21T11:09:38;94750.38;;;25.95;24.32
7480;BME280;3781;42.272;22.658;2023-02-21T11:12:17;94761.31;;;26.05;24.14
7480;BME280;3781;42.272;22.658;2023-02-21T11:14:45;94737.84;;;25.84;24.08
7480;BME280;3781;42.272;22.658;2023-02-21T11:17:28;94720.09;;;25.23;24.36
7480;BME280;3781;42.272;22.658;2023-02-21T11:20:01;94736.47;;;25.45;24.78
7480;BME280;3781;42.272;22.658;2023-02-21T11:22:36;94730.19;;;26.35;23.75
7480;BME280;3781;42.272;22.658;2023-02-21T11:25:05;94724.03;;;25.39;24.60
7480;BME280;3781;42.272;22.658;2023-02-21T11:27:36;94723.47;;;25.55;24.65
7480;BME280;3781;42.272;22.658;2023-02-21T11:30:13;94712.59;;;26.34;23.97
7480;BME280;3781;42.272;22.658;2023-02-21T11:32:42;94699.72;;;26.84;22.85
7480;BME280;3781;42.272;22.658;2023-02-21T11:35:22;94703.44;;;26.95;22.99
7480;BME280;3781;42.272;22.658;2023-02-21T11:37:52;94699.91;;;27.52;22.61
7480;BME280;3781;42.272;22.658;2023-02-21T11:40:28;94660.00;;;27.85;22.60
7480;BME280;3781;42.272;22.658;2023-02-21T11:43:21;94687.34;;;27.64;22.24
7480;BME280;3781;42.272;22.658;2023-02-21T11:45:59;94671.69;;;26.81;23.18
7480;BME280;3781;42.272;22.658;2023-02-21T11:48:32;94661.47;;;24.82;24.80
7480;BME280;3781;42.272;22.658;2023-02-21T11:51:04;94665.91;;;25.06;24.87
7480;BME280;3781;42.272;22.658;2023-02-21T11:53:36;94670.69;;;26.64;23.45
7480;BME280;3781;42.272;22.658;2023-02-21T11:56:13;94652.50;;;26.38;23.48
7480;BME280;3781;42.272;22.658;2023-02-21T11:58:50;94654.47;;;27.24;22.90
7480;BME280;3781;42.272;22.658;2023-02-21T12:01:26;94638.47;;;27.24;22.57
7480;BME280;3781;42.272;22.658;2023-02-21T12:04:03;94636.69;;;26.89;23.29
7480;BME280;3781;42.272;22.658;2023-02-21T12:06:39;94614.84;;;27.16;22.38
7480;BME280;3781;42.272;22.658;2023-02-21T12:09:11;94625.88;;;25.97;23.37
7480;BME280;3781;42.272;22.658;2023-02-21T12:11:46;94621.22;;;25.81;23.83
7480;BME280;3781;42.272;22.658;2023-02-21T12:14:37;94609.19;;;25.30;24.58
7480;BME280;3781;42.272;22.658;2023-02-21T12:17:21;94605.66;;;27.63;22.24
7480;BME280;3781;42.272;22.658;2023-02-21T12:23:06;94585.78;;;26.45;22.61
7480;BME280;3781;42.272;22.658;2023-02-21T12:25:41;94579.59;;;25.57;23.58
7480;BME280;3781;42.272;22.658;2023-02-21T12:28:20;94561.75;;;25.27;23.51
7480;BME280;3781;42.272;22.658;2023-02-21T12:31:08;94562.25;;;26.07;22.62
7480;BME280;3781;42.272;22.658;2023-02-21T12:33:43;94562.91;;;27.07;22.22
7480;BME280;3781;42.272;22.658;2023-02-21T12:36:19;94578.50;;;27.66;21.86
7480;BME280;3781;42.272;22.658;2023-02-21T12:38:53;94544.06;;;28.48;20.95
7480;BME280;3781;42.272;22.658;2023-02-21T12:44:17;94549.97;;;30.01;19.02
7480;BME280;3781;42.272;22.658;2023-02-21T12:46:51;94551.34;;;30.82;18.26
7480;BME280;3781;42.272;22.658;2023-02-21T12:49:24;94547.66;;;29.83;15.99
7480;BME280;3781;42.272;22.658;2023-02-21T12:51:56;94537.00;;;27.58;17.26
7480;BME280;3781;42.272;22.658;2023-02-21T12:54:34;94497.06;;;26.56;19.08
7480;BME280;3781;42.272;22.658;2023-02-21T12:57:06;94538.28;;;26.88;17.74
7480;BME280;3781;42.272;22.658;2023-02-21T12:59:37;94535.84;;;27.26;17.40
7480;BME280;3781;42.272;22.658;2023-02-21T13:02:17;94529.03;;;26.79;17.91
7480;BME280;3781;42.272;22.658;2023-02-21T13:04:51;94514.34;;;26.30;17.78
7480;BME280;3781;42.272;22.658;2023-02-21T13:07:22;94523.94;;;26.54;17.52
7480;BME280;3781;42.272;22.658;2023-02-21T13:12:46;94499.63;;;25.81;18.02
7480;BME280;3781;42.272;22.658;2023-02-21T13:15:18;94487.13;;;25.70;18.39
7480;BME280;3781;42.272;22.658;2023-02-21T13:17:54;94507.81;;;26.72;17.17
7480;BME280;3781;42.272;22.658;2023-02-21T13:20:23;94508.69;;;26.27;17.61
7480;BME280;3781;42.272;22.658;2023-02-21T13:26:07;94502.34;;;26.16;17.49
7480;BME280;3781;42.272;22.658;2023-02-21T13:28:38;94496.06;;;25.99;17.58
7480;BME280;3781;42.272;22.658;2023-02-21T13:31:17;94491.03;;;25.68;18.32
7480;BME280;3781;42.272;22.658;2023-02-21T13:33:49;94505.53;;;26.06;17.92
7480;BME280;3781;42.272;22.658;2023-02-21T13:36:22;94501.59;;;25.86;17.58
7480;BME280;3781;42.272;22.658;2023-02-21T13:39:02;94501.63;;;26.09;17.83
7480;BME280;3781;42.272;22.658;2023-02-21T13:41:36;94495.81;;;25.89;18.17
7480;BME280;3781;42.272;22.658;2023-02-21T13:44:06;94492.31;;;24.76;19.10
7480;BME280;3781;42.272;22.658;2023-02-21T13:46:58;94497.25;;;24.73;19.29
7480;BME280;3781;42.272;22.658;2023-02-21T13:49:48;94500.41;;;25.59;18.29
7480;BME280;3781;42.272;22.658;2023-02-21T13:52:35;94469.06;;;25.61;17.93
7480;BME280;3781;42.272;22.658;2023-02-21T14:00:50;94490.81;;;24.98;18.67
7480;BME280;3781;42.272;22.658;2023-02-21T14:03:32;94484.63;;;25.46;17.97